sensor_id;sensor_type;location;lat;lon;timestamp;P1;durP1;ratioP1;P2;durP2;ratioP2
58528;SDS011;44322;52.968;5.816;2022-07-24T00:00:23;7.93;;;6.90;;
58528;SDS011;44322;52.968;5.816;2022-07-24T00:02:49;9.48;;;7.43;;
58528;SDS011;44322;52.968;5.816;2022-07-24T00:05:15;7.82;;;6.78;;
58528;SDS011;44322;52.968;5.816;2022-07-24T00:07:41;9.23;;;7.50;;
58528;SDS011;44322;52.968;5.816;2022-07-24T00:10:09;8.55;;;7.38;;
58528;SDS011;44322;52.968;5.816;2022-07-24T00:12:36;8.60;;;6.87;;
58528;SDS011;44322;52.968;5.816;2022-07-24T00:15:02;8.80;;;7.25;;
58528;SDS011;44322;52.968;5.816;2022-07-24T00:17:29;8.43;;;7.63;;
58528;SDS011;44322;52.968;5.816;2022-07-24T00:19:54;7.82;;;7.03;;
58528;SDS011;44322;52.968;5.816;2022-07-24T00:22:20;9.95;;;7.60;;
58528;SDS011;44322;52.968;5.816;2022-07-24T00:24:48;9.95;;;7.75;;
58528;SDS011;44322;52.968;5.816;2022-07-24T00:27:15;8.27;;;7.32;;
58528;SDS011;44322;52.968;5.816;2022-07-24T00:29:41;9.60;;;7.80;;
58528;SDS011;44322;52.968;5.816;2022-07-24T00:32:07;8.65;;;7.63;;
58528;SDS011;44322;52.968;5.816;2022-07-24T00:34:32;9.18;;;7.72;;
58528;SDS011;44322;52.968;5.816;2022-07-24T00:36:58;10.25;;;8.98;;
58528;SDS011;44322;52.968;5.816;2022-07-24T00:39:24;11.95;;;8.77;;
58528;SDS011;44322;52.968;5.816;2022-07-24T00:41:50;10.27;;;8.35;;
58528;SDS011;44322;52.968;5.816;2022-07-24T00:44:18;9.18;;;8.27;;
58528;SDS011;44322;52.968;5.816;2022-07-24T00:46:45;8.82;;;7.50;;
58528;SDS011;44322;52.968;5.816;2022-07-24T00:49:15;14.15;;;9.10;;
58528;SDS011;44322;52.968;5.816;2022-07-24T00:51:43;11.18;;;8.57;;
58528;SDS011;44322;52.968;5.816;2022-07-24T00:54:11;9.35;;;8.35;;
58528;SDS011;44322;52.968;5.816;2022-07-24T00:56:38;8.93;;;7.97;;
58528;SDS011;44322;52.968;5.816;2022-07-24T00:59:07;10.45;;;7.80;;
58528;SDS011;44322;52.968;5.816;2022-07-24T01:01:33;9.85;;;8.48;;
58528;SDS011;44322;52.968;5.816;2022-07-24T01:03:58;9.80;;;8.80;;
58528;SDS011;44322;52.968;5.816;2022-07-24T01:06:24;11.77;;;8.88;;
58528;SDS011;44322;52.968;5.816;2022-07-24T01:08:51;10.52;;;8.38;;
58528;SDS011;44322;52.968;5.816;2022-07-24T01:11:18;10.88;;;7.93;;
58528;SDS011;44322;52.968;5.816;2022-07-24T01:13:46;8.80;;;7.35;;
58528;SDS011;44322;52.968;5.816;2022-07-24T01:16:13;9.82;;;8.35;;
58528;SDS011;44322;52.968;5.816;2022-07-24T01:18:39;8.25;;;7.45;;
58528;SDS011;44322;52.968;5.816;2022-07-24T01:21:05;9.55;;;8.45;;
58528;SDS011;44322;52.968;5.816;2022-07-24T01:23:32;9.63;;;7.68;;
58528;SDS011;44322;52.968;5.816;2022-07-24T01:25:58;9.70;;;8.23;;
58528;SDS011;44322;52.968;5.816;2022-07-24T01:28:24;9.45;;;8.15;;
58528;SDS011;44322;52.968;5.816;2022-07-24T01:30:49;9.48;;;8.02;;
58528;SDS011;44322;52.968;5.816;2022-07-24T01:33:15;9.57;;;7.50;;
58528;SDS011;44322;52.968;5.816;2022-07-24T01:35:41;10.48;;;7.47;;
58528;SDS011;44322;52.968;5.816;2022-07-24T01:38:08;8.38;;;6.93;;
58528;SDS011;44322;52.968;5.816;2022-07-24T01:40:35;8.90;;;7.30;;
58528;SDS011;44322;52.968;5.816;2022-07-24T01:43:01;9.13;;;7.22;;
58528;SDS011;44322;52.968;5.816;2022-07-24T01:45:27;9.63;;;6.95;;
58528;SDS011;44322;52.968;5.816;2022-07-24T01:47:53;10.45;;;7.57;;
58528;SDS011;44322;52.968;5.816;2022-07-24T01:50:18;9.30;;;7.30;;
58528;SDS011;44322;52.968;5.816;2022-07-24T01:52:44;7.80;;;6.75;;
58528;SDS011;44322;52.968;5.816;2022-07-24T01:55:10;9.18;;;7.30;;
58528;SDS011;44322;52.968;5.816;2022-07-24T01:57:36;9.18;;;7.57;;
58528;SDS011;44322;52.968;5.816;2022-07-24T02:00:03;8.05;;;6.55;;
58528;SDS011;44322;52.968;5.816;2022-07-24T02:02:39;8.07;;;7.28;;
58528;SDS011;44322;52.968;5.816;2022-07-24T02:05:06;8.10;;;7.00;;
58528;SDS011;44322;52.968;5.816;2022-07-24T02:07:32;12.25;;;8.27;;
58528;SDS011;44322;52.968;5.816;2022-07-24T02:09:58;8.90;;;7.53;;
58528;SDS011;44322;52.968;5.816;2022-07-24T02:12:24;8.93;;;7.93;;
58528;SDS011;44322;52.968;5.816;2022-07-24T02:14:50;10.57;;;7.35;;
58528;SDS011;44322;52.968;5.816;2022-07-24T02:17:16;8.82;;;6.93;;
58528;SDS011;44322;52.968;5.816;2022-07-24T02:19:42;10.20;;;8.43;;
58528;SDS011;44322;52.968;5.816;2022-07-24T02:22:08;9.85;;;7.40;;
58528;SDS011;44322;52.968;5.816;2022-07-24T02:24:34;11.25;;;8.07;;
58528;SDS011;44322;52.968;5.816;2022-07-24T02:27:00;9.88;;;8.65;;
58528;SDS011;44322;52.968;5.816;2022-07-24T02:29:25;11.32;;;8.75;;
58528;SDS011;44322;52.968;5.816;2022-07-24T02:31:52;9.02;;;8.10;;
58528;SDS011;44322;52.968;5.816;2022-07-24T02:34:17;12.25;;;8.70;;
58528;SDS011;44322;52.968;5.816;2022-07-24T02:36:43;9.45;;;8.35;;
58528;SDS011;44322;52.968;5.816;2022-07-24T02:39:09;9.25;;;7.72;;
58528;SDS011;44322;52.968;5.816;2022-07-24T02:41:35;9.43;;;7.80;;
58528;SDS011;44322;52.968;5.816;2022-07-24T02:44:01;10.48;;;7.50;;
58528;SDS011;44322;52.968;5.816;2022-07-24T02:46:27;10.50;;;8.98;;
58528;SDS011;44322;52.968;5.816;2022-07-24T02:48:52;9.70;;;8.70;;
58528;SDS011;44322;52.968;5.816;2022-07-24T02:51:18;11.77;;;9.43;;
58528;SDS011;44322;52.968;5.816;2022-07-24T02:53:44;11.30;;;9.20;;
58528;SDS011;44322;52.968;5.816;2022-07-24T02:56:10;12.55;;;9.43;;
58528;SDS011;44322;52.968;5.816;2022-07-24T02:58:36;11.82;;;9.15;;
58528;SDS011;44322;52.968;5.816;2022-07-24T03:01:02;8.90;;;7.32;;
58528;SDS011;44322;52.968;5.816;2022-07-24T03:03:28;12.50;;;9.13;;
58528;SDS011;44322;52.968;5.816;2022-07-24T03:05:54;11.10;;;8.98;;
58528;SDS011;44322;52.968;5.816;2022-07-24T03:08:20;12.55;;;9.02;;
58528;SDS011;44322;52.968;5.816;2022-07-24T03:10:45;11.38;;;8.60;;
58528;SDS011;44322;52.968;5.816;2022-07-24T03:13:11;11.23;;;9.40;;
58528;SDS011;44322;52.968;5.816;2022-07-24T03:15:37;10.77;;;8.27;;
58528;SDS011;44322;52.968;5.816;2022-07-24T03:18:03;10.50;;;8.93;;
58528;SDS011;44322;52.968;5.816;2022-07-24T03:20:29;11.15;;;9.02;;
58528;SDS011;44322;52.968;5.816;2022-07-24T03:22:55;10.73;;;8.57;;
58528;SDS011;44322;52.968;5.816;2022-07-24T03:25:21;10.90;;;8.68;;
58528;SDS011;44322;52.968;5.816;2022-07-24T03:27:47;11.07;;;9.65;;
58528;SDS011;44322;52.968;5.816;2022-07-24T03:30:13;10.95;;;8.60;;
58528;SDS011;44322;52.968;5.816;2022-07-24T03:32:40;12.63;;;9.77;;
58528;SDS011;44322;52.968;5.816;2022-07-24T03:35:06;9.98;;;7.90;;
58528;SDS011;44322;52.968;5.816;2022-07-24T03:37:32;10.73;;;8.90;;
58528;SDS011;44322;52.968;5.816;2022-07-24T03:39:58;10.45;;;9.30;;
58528;SDS011;44322;52.968;5.816;2022-07-24T03:42:24;11.00;;;9.77;;
58528;SDS011;44322;52.968;5.816;2022-07-24T03:44:50;12.90;;;9.85;;
58528;SDS011;44322;52.968;5.816;2022-07-24T03:47:16;13.48;;;9.70;;
58528;SDS011;44322;52.968;5.816;2022-07-24T03:49:41;11.98;;;9.23;;
58528;SDS011;44322;52.968;5.816;2022-07-24T03:52:07;11.68;;;9.02;;
58528;SDS011;44322;52.968;5.816;2022-07-24T03:54:33;12.88;;;9.05;;
58528;SDS011;44322;52.968;5.816;2022-07-24T03:56:59;10.57;;;8.70;;
58528;SDS011;44322;52.968;5.816;2022-07-24T03:59:25;13.35;;;10.05;;
58528;SDS011;44322;52.968;5.816;2022-07-24T04:01:51;13.85;;;10.00;;
58528;SDS011;44322;52.968;5.816;2022-07-24T04:04:16;14.38;;;9.93;;
58528;SDS011;44322;52.968;5.816;2022-07-24T04:06:42;13.25;;;9.75;;
58528;SDS011;44322;52.968;5.816;2022-07-24T04:09:08;13.23;;;9.25;;
58528;SDS011;44322;52.968;5.816;2022-07-24T04:11:34;11.55;;;9.40;;
58528;SDS011;44322;52.968;5.816;2022-07-24T04:14:01;13.00;;;9.32;;
58528;SDS011;44322;52.968;5.816;2022-07-24T04:16:26;14.82;;;10.07;;
58528;SDS011;44322;52.968;5.816;2022-07-24T04:18:52;13.15;;;10.57;;
58528;SDS011;44322;52.968;5.816;2022-07-24T04:21:18;13.52;;;10.48;;
58528;SDS011;44322;52.968;5.816;2022-07-24T04:23:44;12.40;;;9.93;;
58528;SDS011;44322;52.968;5.816;2022-07-24T04:26:10;14.18;;;10.18;;
58528;SDS011;44322;52.968;5.816;2022-07-24T04:28:36;11.80;;;9.95;;
58528;SDS011;44322;52.968;5.816;2022-07-24T04:31:01;13.48;;;10.48;;
58528;SDS011;44322;52.968;5.816;2022-07-24T04:33:27;13.63;;;10.60;;
58528;SDS011;44322;52.968;5.816;2022-07-24T04:35:53;14.30;;;9.77;;
58528;SDS011;44322;52.968;5.816;2022-07-24T04:38:19;12.88;;;9.75;;
58528;SDS011;44322;52.968;5.816;2022-07-24T04:40:45;12.20;;;9.82;;
58528;SDS011;44322;52.968;5.816;2022-07-24T04:43:11;13.73;;;9.65;;
58528;SDS011;44322;52.968;5.816;2022-07-24T04:45:37;13.68;;;10.55;;
58528;SDS011;44322;52.968;5.816;2022-07-24T04:48:03;14.07;;;10.70;;
58528;SDS011;44322;52.968;5.816;2022-07-24T04:50:29;15.10;;;10.43;;
58528;SDS011;44322;52.968;5.816;2022-07-24T04:52:55;12.65;;;10.80;;
58528;SDS011;44322;52.968;5.816;2022-07-24T04:55:20;14.35;;;10.63;;
58528;SDS011;44322;52.968;5.816;2022-07-24T04:57:46;13.05;;;10.73;;
58528;SDS011;44322;52.968;5.816;2022-07-24T05:00:13;12.02;;;10.15;;
58528;SDS011;44322;52.968;5.816;2022-07-24T05:02:40;15.30;;;10.98;;
58528;SDS011;44322;52.968;5.816;2022-07-24T05:05:06;11.40;;;10.00;;
58528;SDS011;44322;52.968;5.816;2022-07-24T05:07:32;14.70;;;11.38;;
58528;SDS011;44322;52.968;5.816;2022-07-24T05:09:59;17.83;;;11.55;;
58528;SDS011;44322;52.968;5.816;2022-07-24T05:12:25;15.85;;;11.45;;
58528;SDS011;44322;52.968;5.816;2022-07-24T05:14:52;16.00;;;11.90;;
58528;SDS011;44322;52.968;5.816;2022-07-24T05:17:17;15.27;;;11.57;;
58528;SDS011;44322;52.968;5.816;2022-07-24T05:19:43;14.80;;;11.88;;
58528;SDS011;44322;52.968;5.816;2022-07-24T05:22:09;15.73;;;12.05;;
58528;SDS011;44322;52.968;5.816;2022-07-24T05:24:35;19.08;;;11.82;;
58528;SDS011;44322;52.968;5.816;2022-07-24T05:27:01;17.63;;;12.48;;
58528;SDS011;44322;52.968;5.816;2022-07-24T05:29:28;17.35;;;12.93;;
58528;SDS011;44322;52.968;5.816;2022-07-24T05:31:54;15.80;;;12.85;;
58528;SDS011;44322;52.968;5.816;2022-07-24T05:34:20;17.92;;;12.48;;
58528;SDS011;44322;52.968;5.816;2022-07-24T05:36:47;16.17;;;12.68;;
58528;SDS011;44322;52.968;5.816;2022-07-24T05:39:13;16.75;;;13.38;;
58528;SDS011;44322;52.968;5.816;2022-07-24T05:41:39;18.48;;;13.80;;
58528;SDS011;44322;52.968;5.816;2022-07-24T05:44:04;18.60;;;12.93;;
58528;SDS011;44322;52.968;5.816;2022-07-24T05:46:30;17.50;;;13.90;;
58528;SDS011;44322;52.968;5.816;2022-07-24T05:48:56;17.65;;;12.77;;
58528;SDS011;44322;52.968;5.816;2022-07-24T05:51:22;19.20;;;14.50;;
58528;SDS011;44322;52.968;5.816;2022-07-24T05:53:48;18.63;;;14.60;;
58528;SDS011;44322;52.968;5.816;2022-07-24T05:56:14;22.00;;;15.30;;
58528;SDS011;44322;52.968;5.816;2022-07-24T05:58:40;21.08;;;14.60;;
58528;SDS011;44322;52.968;5.816;2022-07-24T06:01:06;21.15;;;15.00;;
58528;SDS011;44322;52.968;5.816;2022-07-24T06:03:31;18.75;;;14.45;;
58528;SDS011;44322;52.968;5.816;2022-07-24T06:05:57;20.23;;;14.80;;
58528;SDS011;44322;52.968;5.816;2022-07-24T06:08:23;19.92;;;14.63;;
58528;SDS011;44322;52.968;5.816;2022-07-24T06:10:49;21.55;;;16.40;;
58528;SDS011;44322;52.968;5.816;2022-07-24T06:13:15;21.73;;;15.65;;
58528;SDS011;44322;52.968;5.816;2022-07-24T06:15:40;21.63;;;16.15;;
58528;SDS011;44322;52.968;5.816;2022-07-24T06:18:06;21.35;;;15.75;;
58528;SDS011;44322;52.968;5.816;2022-07-24T06:20:32;23.13;;;17.65;;
58528;SDS011;44322;52.968;5.816;2022-07-24T06:22:58;23.83;;;16.80;;
58528;SDS011;44322;52.968;5.816;2022-07-24T06:25:24;25.70;;;17.73;;
58528;SDS011;44322;52.968;5.816;2022-07-24T06:27:50;23.85;;;17.95;;
58528;SDS011;44322;52.968;5.816;2022-07-24T06:30:21;23.83;;;17.90;;
58528;SDS011;44322;52.968;5.816;2022-07-24T06:32:49;23.60;;;16.80;;
58528;SDS011;44322;52.968;5.816;2022-07-24T06:35:17;21.95;;;15.95;;
58528;SDS011;44322;52.968;5.816;2022-07-24T06:37:43;23.33;;;16.98;;
58528;SDS011;44322;52.968;5.816;2022-07-24T06:40:09;24.58;;;16.90;;
58528;SDS011;44322;52.968;5.816;2022-07-24T06:42:35;21.52;;;16.67;;
58528;SDS011;44322;52.968;5.816;2022-07-24T06:45:01;23.10;;;17.55;;
58528;SDS011;44322;52.968;5.816;2022-07-24T06:47:27;23.73;;;17.27;;
58528;SDS011;44322;52.968;5.816;2022-07-24T06:49:53;23.95;;;17.33;;
58528;SDS011;44322;52.968;5.816;2022-07-24T06:52:19;21.13;;;16.67;;
58528;SDS011;44322;52.968;5.816;2022-07-24T06:54:45;20.60;;;16.33;;
58528;SDS011;44322;52.968;5.816;2022-07-24T06:57:12;22.52;;;15.98;;
58528;SDS011;44322;52.968;5.816;2022-07-24T06:59:38;22.23;;;15.60;;
58528;SDS011;44322;52.968;5.816;2022-07-24T07:02:04;20.20;;;14.88;;
58528;SDS011;44322;52.968;5.816;2022-07-24T07:04:31;21.63;;;14.63;;
58528;SDS011;44322;52.968;5.816;2022-07-24T07:06:56;19.80;;;14.88;;
58528;SDS011;44322;52.968;5.816;2022-07-24T07:09:22;18.13;;;12.93;;
58528;SDS011;44322;52.968;5.816;2022-07-24T07:11:48;17.00;;;12.80;;
58528;SDS011;44322;52.968;5.816;2022-07-24T07:14:14;18.60;;;13.95;;
58528;SDS011;44322;52.968;5.816;2022-07-24T07:16:40;16.65;;;12.60;;
58528;SDS011;44322;52.968;5.816;2022-07-24T07:19:05;15.52;;;12.55;;
58528;SDS011;44322;52.968;5.816;2022-07-24T07:21:31;15.25;;;11.10;;
58528;SDS011;44322;52.968;5.816;2022-07-24T07:23:57;14.75;;;10.88;;
58528;SDS011;44322;52.968;5.816;2022-07-24T07:26:23;17.00;;;11.38;;
58528;SDS011;44322;52.968;5.816;2022-07-24T07:28:49;15.35;;;10.10;;
58528;SDS011;44322;52.968;5.816;2022-07-24T07:31:15;12.55;;;9.00;;
58528;SDS011;44322;52.968;5.816;2022-07-24T07:33:40;15.10;;;9.30;;
58528;SDS011;44322;52.968;5.816;2022-07-24T07:36:07;10.27;;;8.40;;
58528;SDS011;44322;52.968;5.816;2022-07-24T07:38:34;12.55;;;9.45;;
58528;SDS011;44322;52.968;5.816;2022-07-24T07:41:01;12.88;;;9.30;;
58528;SDS011;44322;52.968;5.816;2022-07-24T07:43:27;12.55;;;9.38;;
58528;SDS011;44322;52.968;5.816;2022-07-24T07:45:53;10.75;;;8.30;;
58528;SDS011;44322;52.968;5.816;2022-07-24T07:48:19;10.60;;;8.18;;
58528;SDS011;44322;52.968;5.816;2022-07-24T07:50:45;12.30;;;8.18;;
58528;SDS011;44322;52.968;5.816;2022-07-24T07:53:11;9.73;;;7.55;;
58528;SDS011;44322;52.968;5.816;2022-07-24T07:55:36;10.30;;;7.38;;
58528;SDS011;44322;52.968;5.816;2022-07-24T07:58:02;10.10;;;7.40;;
58528;SDS011;44322;52.968;5.816;2022-07-24T08:00:28;9.40;;;6.70;;
58528;SDS011;44322;52.968;5.816;2022-07-24T08:02:54;9.02;;;6.57;;
58528;SDS011;44322;52.968;5.816;2022-07-24T08:05:20;9.15;;;6.43;;
58528;SDS011;44322;52.968;5.816;2022-07-24T08:07:46;7.15;;;6.20;;
58528;SDS011;44322;52.968;5.816;2022-07-24T08:10:12;8.95;;;6.30;;
58528;SDS011;44322;52.968;5.816;2022-07-24T08:12:38;9.38;;;6.10;;
58528;SDS011;44322;52.968;5.816;2022-07-24T08:15:04;7.97;;;6.07;;
58528;SDS011;44322;52.968;5.816;2022-07-24T08:17:30;9.07;;;5.82;;
58528;SDS011;44322;52.968;5.816;2022-07-24T08:20:11;6.55;;;5.75;;
58528;SDS011;44322;52.968;5.816;2022-07-24T08:22:40;6.50;;;5.22;;
58528;SDS011;44322;52.968;5.816;2022-07-24T08:25:09;9.85;;;5.20;;
58528;SDS011;44322;52.968;5.816;2022-07-24T08:27:35;6.10;;;5.38;;
58528;SDS011;44322;52.968;5.816;2022-07-24T08:30:02;6.18;;;5.45;;
58528;SDS011;44322;52.968;5.816;2022-07-24T08:32:28;7.50;;;4.95;;
58528;SDS011;44322;52.968;5.816;2022-07-24T08:34:54;6.53;;;5.15;;
58528;SDS011;44322;52.968;5.816;2022-07-24T08:37:20;8.15;;;5.70;;
58528;SDS011;44322;52.968;5.816;2022-07-24T08:39:46;8.05;;;5.03;;
58528;SDS011;44322;52.968;5.816;2022-07-24T08:42:12;5.82;;;4.53;;
58528;SDS011;44322;52.968;5.816;2022-07-24T08:44:38;5.55;;;4.75;;
58528;SDS011;44322;52.968;5.816;2022-07-24T08:47:04;8.13;;;5.22;;
58528;SDS011;44322;52.968;5.816;2022-07-24T08:49:33;6.53;;;3.83;;
58528;SDS011;44322;52.968;5.816;2022-07-24T08:54:28;6.85;;;4.43;;
58528;SDS011;44322;52.968;5.816;2022-07-24T08:56:53;6.60;;;4.40;;
58528;SDS011;44322;52.968;5.816;2022-07-24T08:59:20;6.07;;;4.78;;
58528;SDS011;44322;52.968;5.816;2022-07-24T09:06:59;5.65;;;4.10;;
58528;SDS011;44322;52.968;5.816;2022-07-24T09:09:25;4.85;;;4.28;;
58528;SDS011;44322;52.968;5.816;2022-07-24T09:12:04;7.88;;;4.47;;
58528;SDS011;44322;52.968;5.816;2022-07-24T09:14:36;6.50;;;4.47;;
58528;SDS011;44322;52.968;5.816;2022-07-24T09:17:14;5.78;;;4.57;;
58528;SDS011;44322;52.968;5.816;2022-07-24T09:22:40;5.25;;;4.22;;
58528;SDS011;44322;52.968;5.816;2022-07-24T09:27:38;4.78;;;4.25;;
58528;SDS011;44322;52.968;5.816;2022-07-24T09:33:30;5.10;;;4.35;;
58528;SDS011;44322;52.968;5.816;2022-07-24T09:36:01;10.57;;;5.00;;
58528;SDS011;44322;52.968;5.816;2022-07-24T09:38:37;5.67;;;4.10;;
58528;SDS011;44322;52.968;5.816;2022-07-24T09:41:03;5.43;;;3.70;;
58528;SDS011;44322;52.968;5.816;2022-07-24T09:43:30;6.50;;;4.18;;
58528;SDS011;44322;52.968;5.816;2022-07-24T09:48:40;5.10;;;4.00;;
58528;SDS011;44322;52.968;5.816;2022-07-24T09:51:23;6.38;;;4.30;;
58528;SDS011;44322;52.968;5.816;2022-07-24T09:53:56;4.47;;;3.63;;
58528;SDS011;44322;52.968;5.816;2022-07-24T09:56:24;5.15;;;3.97;;
58528;SDS011;44322;52.968;5.816;2022-07-24T09:58:51;4.60;;;3.63;;
58528;SDS011;44322;52.968;5.816;2022-07-24T10:01:23;4.40;;;3.60;;
58528;SDS011;44322;52.968;5.816;2022-07-24T10:03:50;3.65;;;3.28;;
58528;SDS011;44322;52.968;5.816;2022-07-24T10:08:48;5.72;;;3.70;;
58528;SDS011;44322;52.968;5.816;2022-07-24T10:11:16;3.90;;;3.58;;
58528;SDS011;44322;52.968;5.816;2022-07-24T10:13:43;5.25;;;3.85;;
58528;SDS011;44322;52.968;5.816;2022-07-24T10:18:46;3.97;;;3.58;;
58528;SDS011;44322;52.968;5.816;2022-07-24T10:21:17;5.70;;;3.25;;
58528;SDS011;44322;52.968;5.816;2022-07-24T10:26:33;4.78;;;3.70;;
58528;SDS011;44322;52.968;5.816;2022-07-24T10:29:04;4.15;;;3.20;;
58528;SDS011;44322;52.968;5.816;2022-07-24T10:31:50;3.88;;;3.17;;
58528;SDS011;44322;52.968;5.816;2022-07-24T10:37:02;3.85;;;3.00;;
58528;SDS011;44322;52.968;5.816;2022-07-24T10:42:15;7.75;;;3.35;;
58528;SDS011;44322;52.968;5.816;2022-07-24T10:44:41;7.00;;;3.40;;
58528;SDS011;44322;52.968;5.816;2022-07-24T10:47:10;4.68;;;3.30;;
58528;SDS011;44322;52.968;5.816;2022-07-24T10:49:42;3.85;;;3.45;;
58528;SDS011;44322;52.968;5.816;2022-07-24T10:52:20;4.70;;;3.20;;
58528;SDS011;44322;52.968;5.816;2022-07-24T10:54:46;5.40;;;3.42;;
58528;SDS011;44322;52.968;5.816;2022-07-24T10:57:12;4.97;;;2.95;;
58528;SDS011;44322;52.968;5.816;2022-07-24T10:59:39;3.25;;;2.72;;
58528;SDS011;44322;52.968;5.816;2022-07-24T11:02:24;4.97;;;3.30;;
58528;SDS011;44322;52.968;5.816;2022-07-24T11:10:47;6.22;;;3.10;;
58528;SDS011;44322;52.968;5.816;2022-07-24T11:21:02;4.63;;;3.83;;
58528;SDS011;44322;52.968;5.816;2022-07-24T11:23:29;4.40;;;3.23;;
58528;SDS011;44322;52.968;5.816;2022-07-24T11:29:22;4.53;;;3.42;;
58528;SDS011;44322;52.968;5.816;2022-07-24T11:31:54;3.00;;;2.70;;
58528;SDS011;44322;52.968;5.816;2022-07-24T11:34:29;4.18;;;2.92;;
58528;SDS011;44322;52.968;5.816;2022-07-24T11:36:56;4.05;;;3.22;;
58528;SDS011;44322;52.968;5.816;2022-07-24T11:39:30;4.05;;;2.92;;
58528;SDS011;44322;52.968;5.816;2022-07-24T11:42:02;4.30;;;3.15;;
58528;SDS011;44322;52.968;5.816;2022-07-24T11:44:36;4.57;;;3.10;;
58528;SDS011;44322;52.968;5.816;2022-07-24T11:47:26;3.47;;;3.00;;
58528;SDS011;44322;52.968;5.816;2022-07-24T11:49:55;3.00;;;2.70;;
58528;SDS011;44322;52.968;5.816;2022-07-24T11:54:59;3.33;;;3.03;;
58528;SDS011;44322;52.968;5.816;2022-07-24T11:57:29;4.18;;;2.92;;
58528;SDS011;44322;52.968;5.816;2022-07-24T11:59:59;3.58;;;3.15;;
58528;SDS011;44322;52.968;5.816;2022-07-24T12:02:25;4.23;;;3.10;;
58528;SDS011;44322;52.968;5.816;2022-07-24T12:04:52;3.17;;;2.70;;
58528;SDS011;44322;52.968;5.816;2022-07-24T12:07:23;5.47;;;2.88;;
58528;SDS011;44322;52.968;5.816;2022-07-24T12:09:52;5.20;;;2.83;;
58528;SDS011;44322;52.968;5.816;2022-07-24T12:17:12;5.55;;;3.25;;
58528;SDS011;44322;52.968;5.816;2022-07-24T12:19:38;3.20;;;2.73;;
58528;SDS011;44322;52.968;5.816;2022-07-24T12:22:04;3.10;;;2.77;;
58528;SDS011;44322;52.968;5.816;2022-07-24T12:24:31;3.72;;;2.65;;
58528;SDS011;44322;52.968;5.816;2022-07-24T12:29:25;3.15;;;2.75;;
58528;SDS011;44322;52.968;5.816;2022-07-24T12:31:52;4.15;;;2.80;;
58528;SDS011;44322;52.968;5.816;2022-07-24T12:34:47;3.10;;;2.60;;
58528;SDS011;44322;52.968;5.816;2022-07-24T12:37:16;2.90;;;2.70;;
58528;SDS011;44322;52.968;5.816;2022-07-24T12:39:47;3.78;;;2.92;;
58528;SDS011;44322;52.968;5.816;2022-07-24T12:42:13;3.13;;;2.58;;
58528;SDS011;44322;52.968;5.816;2022-07-24T12:44:40;2.97;;;2.78;;
58528;SDS011;44322;52.968;5.816;2022-07-24T12:47:13;4.45;;;2.75;;
58528;SDS011;44322;52.968;5.816;2022-07-24T12:49:43;5.03;;;3.00;;
58528;SDS011;44322;52.968;5.816;2022-07-24T12:52:21;3.25;;;2.80;;
58528;SDS011;44322;52.968;5.816;2022-07-24T12:54:50;5.07;;;2.75;;
58528;SDS011;44322;52.968;5.816;2022-07-24T12:57:20;3.88;;;3.00;;
58528;SDS011;44322;52.968;5.816;2022-07-24T12:59:47;5.55;;;3.00;;
58528;SDS011;44322;52.968;5.816;2022-07-24T13:02:16;2.80;;;2.60;;
58528;SDS011;44322;52.968;5.816;2022-07-24T13:04:53;3.28;;;2.30;;
58528;SDS011;44322;52.968;5.816;2022-07-24T13:07:22;3.15;;;2.58;;
58528;SDS011;44322;52.968;5.816;2022-07-24T13:09:49;2.65;;;2.45;;
58528;SDS011;44322;52.968;5.816;2022-07-24T13:12:17;2.80;;;2.60;;
58528;SDS011;44322;52.968;5.816;2022-07-24T13:14:43;5.35;;;2.60;;
58528;SDS011;44322;52.968;5.816;2022-07-24T13:17:10;2.65;;;2.38;;
58528;SDS011;44322;52.968;5.816;2022-07-24T13:19:37;2.72;;;2.53;;
58528;SDS011;44322;52.968;5.816;2022-07-24T13:22:04;2.70;;;2.50;;
58528;SDS011;44322;52.968;5.816;2022-07-24T13:24:30;2.58;;;2.38;;
58528;SDS011;44322;52.968;5.816;2022-07-24T13:26:58;2.55;;;2.35;;
58528;SDS011;44322;52.968;5.816;2022-07-24T13:29:25;3.15;;;2.25;;
58528;SDS011;44322;52.968;5.816;2022-07-24T13:31:52;2.80;;;2.38;;
58528;SDS011;44322;52.968;5.816;2022-07-24T13:34:18;5.22;;;2.72;;
58528;SDS011;44322;52.968;5.816;2022-07-24T13:36:44;3.38;;;2.60;;
58528;SDS011;44322;52.968;5.816;2022-07-24T13:39:11;3.35;;;2.40;;
58528;SDS011;44322;52.968;5.816;2022-07-24T13:44:04;2.92;;;2.08;;
58528;SDS011;44322;52.968;5.816;2022-07-24T13:46:30;2.80;;;2.60;;
58528;SDS011;44322;52.968;5.816;2022-07-24T13:48:58;2.53;;;2.33;;
58528;SDS011;44322;52.968;5.816;2022-07-24T13:51:25;3.33;;;2.47;;
58528;SDS011;44322;52.968;5.816;2022-07-24T13:53:52;3.05;;;2.65;;
58528;SDS011;44322;52.968;5.816;2022-07-24T13:56:18;2.80;;;2.60;;
58528;SDS011;44322;52.968;5.816;2022-07-24T13:58:44;4.03;;;2.25;;
58528;SDS011;44322;52.968;5.816;2022-07-24T14:03:38;4.47;;;2.30;;
58528;SDS011;44322;52.968;5.816;2022-07-24T14:06:06;3.10;;;2.50;;
58528;SDS011;44322;52.968;5.816;2022-07-24T14:08:33;4.68;;;2.50;;
58528;SDS011;44322;52.968;5.816;2022-07-24T14:13:25;3.38;;;2.42;;
58528;SDS011;44322;52.968;5.816;2022-07-24T14:15:51;4.38;;;2.80;;
58528;SDS011;44322;52.968;5.816;2022-07-24T14:18:16;3.72;;;2.70;;
58528;SDS011;44322;52.968;5.816;2022-07-24T14:20:42;4.60;;;2.90;;
58528;SDS011;44322;52.968;5.816;2022-07-24T14:23:08;2.53;;;2.28;;
58528;SDS011;44322;52.968;5.816;2022-07-24T14:25:34;2.60;;;2.40;;
58528;SDS011;44322;52.968;5.816;2022-07-24T14:28:00;2.63;;;2.42;;
58528;SDS011;44322;52.968;5.816;2022-07-24T14:30:26;3.50;;;2.53;;
58528;SDS011;44322;52.968;5.816;2022-07-24T14:32:52;2.75;;;2.35;;
58528;SDS011;44322;52.968;5.816;2022-07-24T14:35:18;4.57;;;2.97;;
58528;SDS011;44322;52.968;5.816;2022-07-24T14:37:43;2.85;;;2.40;;
58528;SDS011;44322;52.968;5.816;2022-07-24T14:40:09;3.40;;;2.60;;
58528;SDS011;44322;52.968;5.816;2022-07-24T14:42:35;3.35;;;2.80;;
58528;SDS011;44322;52.968;5.816;2022-07-24T14:45:01;2.93;;;2.63;;
58528;SDS011;44322;52.968;5.816;2022-07-24T14:47:28;3.30;;;3.00;;
58528;SDS011;44322;52.968;5.816;2022-07-24T14:49:54;3.92;;;2.83;;
58528;SDS011;44322;52.968;5.816;2022-07-24T14:52:20;3.70;;;2.83;;
58528;SDS011;44322;52.968;5.816;2022-07-24T14:57:13;2.97;;;2.65;;
58528;SDS011;44322;52.968;5.816;2022-07-24T14:59:39;4.70;;;2.40;;
58528;SDS011;44322;52.968;5.816;2022-07-24T15:02:06;5.20;;;3.22;;
58528;SDS011;44322;52.968;5.816;2022-07-24T15:06:58;3.60;;;2.70;;
58528;SDS011;44322;52.968;5.816;2022-07-24T15:09:24;4.67;;;2.80;;
58528;SDS011;44322;52.968;5.816;2022-07-24T15:11:50;3.10;;;2.80;;
58528;SDS011;44322;52.968;5.816;2022-07-24T15:14:15;4.13;;;2.90;;
58528;SDS011;44322;52.968;5.816;2022-07-24T15:16:41;4.22;;;3.08;;
58528;SDS011;44322;52.968;5.816;2022-07-24T15:19:08;3.25;;;2.42;;
58528;SDS011;44322;52.968;5.816;2022-07-24T15:21:34;3.13;;;2.83;;
58528;SDS011;44322;52.968;5.816;2022-07-24T15:24:00;3.97;;;2.58;;
58528;SDS011;44322;52.968;5.816;2022-07-24T15:26:26;4.85;;;3.20;;
58528;SDS011;44322;52.968;5.816;2022-07-24T15:28:52;2.88;;;2.63;;
58528;SDS011;44322;52.968;5.816;2022-07-24T15:31:18;3.60;;;2.72;;
58528;SDS011;44322;52.968;5.816;2022-07-24T15:33:44;4.70;;;2.80;;
58528;SDS011;44322;52.968;5.816;2022-07-24T15:36:10;3.08;;;2.78;;
58528;SDS011;44322;52.968;5.816;2022-07-24T15:38:36;7.00;;;3.17;;
58528;SDS011;44322;52.968;5.816;2022-07-24T15:41:02;4.20;;;3.20;;
58528;SDS011;44322;52.968;5.816;2022-07-24T15:43:28;3.67;;;3.38;;
58528;SDS011;44322;52.968;5.816;2022-07-24T15:45:55;3.97;;;2.92;;
58528;SDS011;44322;52.968;5.816;2022-07-24T15:48:21;6.13;;;2.87;;
58528;SDS011;44322;52.968;5.816;2022-07-24T15:50:46;3.03;;;2.72;;